createdAt,value
2022-09-27T00:01:09.786Z,74.40
2022-09-27T00:03:38.526Z,74.15
2022-09-27T00:06:28.433Z,74.18
2022-09-27T00:09:01.442Z,74.25
2022-09-27T00:11:40.539Z,74.21
2022-09-27T00:14:08.780Z,74.36
2022-09-27T00:16:38.951Z,74.11
2022-09-27T00:19:10.522Z,74.22
2022-09-27T00:21:38.097Z,74.22
2022-09-27T00:24:05.543Z,73.67
2022-09-27T00:26:33.253Z,74.37
2022-09-27T00:29:00.575Z,73.85
2022-09-27T00:31:30.699Z,73.94
2022-09-27T00:34:00.426Z,73.84
2022-09-27T00:36:29.013Z,73.63
2022-09-27T00:38:57.493Z,74.17
2022-09-27T00:41:31.273Z,73.95
2022-09-27T00:44:01.643Z,74.06
2022-09-27T00:46:37.953Z,74.04
2022-09-27T00:49:31.568Z,74.67
2022-09-27T00:52:08.051Z,73.57
2022-09-27T00:54:40.559Z,74.32
2022-09-27T00:57:08.997Z,73.87
2022-09-27T00:59:44.162Z,74.91
2022-09-27T01:02:12.219Z,74.59
2022-09-27T01:04:41.494Z,74.54
2022-09-27T01:07:09.057Z,74.88
2022-09-27T01:09:39.820Z,74.92
2022-09-27T01:12:18.711Z,74.60
2022-09-27T01:15:12.940Z,74.89
2022-09-27T01:18:16.760Z,75.06
2022-09-27T01:20:59.289Z,75.09
2022-09-27T01:23:49.344Z,74.99
2022-09-27T01:26:43.881Z,74.84
2022-09-27T01:29:42.013Z,74.25
2022-09-27T01:32:33.316Z,74.32
2022-09-27T01:35:22.592Z,74.33
2022-09-27T01:38:09.615Z,74.26
2022-09-27T01:41:14.160Z,74.39
2022-09-27T01:43:59.993Z,74.18
2022-09-27T01:46:40.526Z,74.37
2022-09-27T01:49:17.530Z,74.38
2022-09-27T01:52:07.924Z,74.46
2022-09-27T01:54:51.961Z,74.48
2022-09-27T01:57:24.142Z,74.70
2022-09-27T02:00:00.126Z,74.44
2022-09-27T02:02:52.291Z,74.58
2022-09-27T02:05:55.697Z,74.58
2022-09-27T02:08:41.174Z,74.68
2022-09-27T02:11:15.765Z,74.81
2022-09-27T02:13:53.347Z,74.30
2022-09-27T02:16:54.647Z,73.98
2022-09-27T02:19:45.421Z,74.47
2022-09-27T02:22:28.898Z,74.56
2022-09-27T02:25:09.289Z,74.32
2022-09-27T02:27:43.214Z,74.44
2022-09-27T02:30:15.129Z,73.92
2022-09-27T02:32:44.034Z,74.32
2022-09-27T02:35:17.640Z,74.88
2022-09-27T02:37:46.954Z,74.51
2022-09-27T02:40:14.638Z,74.37
2022-09-27T02:42:43.986Z,74.81
2022-09-27T02:45:13.100Z,75.38
2022-09-27T02:47:56.246Z,75.13
2022-09-27T02:50:38.773Z,75.32
2022-09-27T02:53:28.983Z,75.30
2022-09-27T02:56:07.788Z,74.94
2022-09-27T02:58:59.273Z,75.32
2022-09-27T03:01:35.339Z,75.46
2022-09-27T03:04:18.053Z,75.27
2022-09-27T03:06:47.734Z,75.17
2022-09-27T03:09:24.759Z,75.41
2022-09-27T03:11:52.127Z,74.80
2022-09-27T03:14:19.503Z,74.85
2022-09-27T03:16:47.149Z,74.76
2022-09-27T03:19:14.675Z,74.20
2022-09-27T03:21:42.075Z,74.55
2022-09-27T03:24:10.911Z,74.51
2022-09-27T03:26:38.021Z,74.05
2022-09-27T03:29:05.130Z,74.20
2022-09-27T03:31:32.089Z,74.02
2022-09-27T03:33:59.504Z,73.79
2022-09-27T03:36:26.354Z,73.97
2022-09-27T03:38:55.026Z,74.03
2022-09-27T03:41:22.291Z,74.25
2022-09-27T03:43:49.553Z,73.89
2022-09-27T03:46:16.802Z,74.15
2022-09-27T03:48:44.096Z,74.18
2022-09-27T03:51:13.137Z,74.45
2022-09-27T03:53:40.275Z,74.44
2022-09-27T03:56:07.766Z,74.15
2022-09-27T03:58:35.075Z,74.06
2022-09-27T04:01:02.496Z,74.54
2022-09-27T04:03:29.907Z,74.01
2022-09-27T04:05:57.203Z,73.47
2022-09-27T04:08:24.588Z,73.75
2022-09-27T04:10:52.279Z,73.38
2022-09-27T04:13:19.929Z,73.12
2022-09-27T04:15:51.872Z,73.19
2022-09-27T04:18:19.803Z,73.40
2022-09-27T04:20:47.249Z,73.90
2022-09-27T04:23:14.152Z,73.72
2022-09-27T04:25:41.385Z,73.56
2022-09-27T04:28:08.670Z,73.29
2022-09-27T04:30:35.950Z,73.58
2022-09-27T04:33:02.855Z,73.52
2022-09-27T04:35:48.643Z,73.50
2022-09-27T04:38:15.883Z,73.24
2022-09-27T04:40:43.238Z,73.38
2022-09-27T04:43:10.558Z,73.48
2022-09-27T04:45:37.896Z,73.55
2022-09-27T04:48:05.412Z,73.63
2022-09-27T04:50:35.881Z,73.23
2022-09-27T04:53:03.862Z,73.20
2022-09-27T04:55:31.030Z,73.04
2022-09-27T04:57:58.424Z,73.14
2022-09-27T05:00:25.994Z,73.23
2022-09-27T05:02:53.257Z,73.70
2022-09-27T05:05:20.765Z,73.89
2022-09-27T05:07:48.249Z,74.16
2022-09-27T05:10:15.585Z,73.98
2022-09-27T05:12:43.396Z,73.78
2022-09-27T05:15:11.088Z,73.71
2022-09-27T05:17:38.394Z,74.21
2022-09-27T05:20:06.182Z,73.80
2022-09-27T05:22:33.485Z,73.73
2022-09-27T05:25:01.202Z,73.79
2022-09-27T05:27:28.554Z,73.50
2022-09-27T05:29:57.166Z,73.99
2022-09-27T05:32:24.312Z,73.63
2022-09-27T05:35:03.635Z,73.87
2022-09-27T05:37:31.869Z,73.19
2022-09-27T05:39:59.150Z,72.66
2022-09-27T05:42:26.500Z,73.25
2022-09-27T05:44:59.635Z,73.02
2022-09-27T05:47:27.073Z,72.85
2022-09-27T05:49:55.758Z,73.78
2022-09-27T05:52:23.345Z,72.78
2022-09-27T05:55:04.980Z,73.10
2022-09-27T05:57:32.526Z,72.90
2022-09-27T06:00:00.920Z,72.86
2022-09-27T06:02:28.580Z,72.81
2022-09-27T06:05:05.379Z,73.40
2022-09-27T06:07:32.866Z,72.62
2022-09-27T06:10:00.114Z,72.13
2022-09-27T06:12:27.464Z,72.29
2022-09-27T06:14:58.335Z,72.33
2022-09-27T06:17:25.496Z,72.37
2022-09-27T06:19:52.762Z,72.41
2022-09-27T06:22:20.051Z,72.21
2022-09-27T06:24:46.869Z,72.15
2022-09-27T06:27:13.965Z,71.89
2022-09-27T06:29:41.210Z,71.49
2022-09-27T06:32:08.393Z,71.42
2022-09-27T06:34:37.063Z,71.46
2022-09-27T06:37:04.432Z,71.89
2022-09-27T06:39:33.886Z,71.63
2022-09-27T06:42:01.408Z,71.45
2022-09-27T06:44:28.714Z,72.07
2022-09-27T06:46:56.094Z,72.50
2022-09-27T06:49:23.352Z,71.19
2022-09-27T06:51:51.213Z,72.04
2022-09-27T06:54:19.262Z,77.32
2022-09-27T06:56:53.747Z,77.16
2022-09-27T06:59:39.345Z,76.35
2022-09-27T07:02:06.987Z,71.81
2022-09-27T07:04:45.161Z,70.98
2022-09-27T07:07:12.631Z,70.38
2022-09-27T07:09:40.648Z,70.57
2022-09-27T07:12:07.891Z,70.98
2022-09-27T07:14:36.076Z,70.29
2022-09-27T07:17:03.966Z,71.58
2022-09-27T07:19:31.330Z,70.58
2022-09-27T07:21:58.797Z,70.00
2022-09-27T07:24:26.059Z,69.67
2022-09-27T07:26:53.293Z,70.42
2022-09-27T07:29:20.439Z,70.76
2022-09-27T07:31:47.846Z,70.79
2022-09-27T07:34:18.622Z,70.64
2022-09-27T07:36:45.892Z,70.54
2022-09-27T07:39:13.097Z,70.92
2022-09-27T07:41:40.896Z,70.26
2022-09-27T07:44:08.410Z,70.28
2022-09-27T07:46:35.249Z,70.73
2022-09-27T07:49:04.742Z,71.42
2022-09-27T07:51:31.663Z,73.03
2022-09-27T07:53:58.582Z,71.80
2022-09-27T07:56:25.424Z,71.26
2022-09-27T07:58:52.210Z,71.09
2022-09-27T08:01:19.496Z,71.65
2022-09-27T08:03:46.429Z,71.97
2022-09-27T08:06:13.413Z,72.06
2022-09-27T08:08:41.748Z,71.78
2022-09-27T08:11:16.755Z,71.30
2022-09-27T08:13:44.830Z,71.70
2022-09-27T08:16:18.526Z,72.45
2022-09-27T08:18:45.448Z,72.37
2022-09-27T08:21:13.301Z,72.48
2022-09-27T08:23:40.347Z,71.64
2022-09-27T08:26:07.198Z,71.54
2022-09-27T08:28:34.028Z,71.94
2022-09-27T08:31:01.127Z,71.99
2022-09-27T08:33:32.147Z,71.44
2022-09-27T08:36:02.073Z,71.73
2022-09-27T08:38:29.361Z,71.40
2022-09-27T08:41:12.830Z,71.23
2022-09-27T08:44:05.575Z,71.75
2022-09-27T08:46:54.310Z,71.52
2022-09-27T08:49:41.774Z,71.13
2022-09-27T08:52:30.582Z,71.30
2022-09-27T08:55:01.908Z,71.13
2022-09-27T08:57:28.882Z,72.29
2022-09-27T09:00:06.265Z,71.81
2022-09-27T09:02:35.068Z,71.34
2022-09-27T09:05:13.419Z,71.64
2022-09-27T09:08:31.030Z,71.73
2022-09-27T09:11:49.183Z,71.90
2022-09-27T09:14:30.986Z,70.34
2022-09-27T09:17:43.918Z,71.04
2022-09-27T09:20:20.186Z,70.61
2022-09-27T09:23:03.822Z,71.46
2022-09-27T09:25:46.580Z,71.64
2022-09-27T09:28:28.955Z,71.15
2022-09-27T09:31:25.487Z,71.23
2022-09-27T09:34:05.773Z,71.29
2022-09-27T09:36:47.892Z,71.73
2022-09-27T09:39:23.863Z,72.42
2022-09-27T09:42:09.505Z,71.59
2022-09-27T09:44:46.212Z,71.02
2022-09-27T09:47:28.057Z,71.10
2022-09-27T09:50:01.445Z,70.53
2022-09-27T09:52:39.906Z,71.49
2022-09-27T09:55:19.358Z,71.08
2022-09-27T09:57:56.547Z,70.90
2022-09-27T10:00:24.085Z,70.71
2022-09-27T10:02:54.949Z,70.16
2022-09-27T10:05:24.711Z,70.55
2022-09-27T10:07:55.050Z,71.77
2022-09-27T10:10:22.401Z,71.25
2022-09-27T10:12:50.162Z,71.25
2022-09-27T10:15:20.968Z,71.24
2022-09-27T10:17:51.301Z,71.40
2022-09-27T10:20:36.113Z,71.73
2022-09-27T10:23:25.384Z,72.12
2022-09-27T10:25:56.886Z,71.19
2022-09-27T10:28:34.476Z,71.68
2022-09-27T10:31:04.294Z,71.46
2022-09-27T10:33:32.063Z,69.82
2022-09-27T10:36:01.132Z,69.44
2022-09-27T10:38:36.135Z,68.90
2022-09-27T10:41:26.211Z,66.99
2022-09-27T10:43:53.081Z,68.04
2022-09-27T10:46:30.587Z,70.43
2022-09-27T10:49:21.170Z,72.47
2022-09-27T10:51:53.677Z,73.57
2022-09-27T10:54:29.456Z,74.74
2022-09-27T10:57:05.337Z,74.96
2022-09-27T10:59:40.771Z,75.22
2022-09-27T11:02:21.076Z,75.60
2022-09-27T11:05:15.328Z,76.18
2022-09-27T11:07:57.691Z,77.27
2022-09-27T11:10:36.262Z,77.65
2022-09-27T11:13:19.023Z,77.60
2022-09-27T11:15:45.854Z,79.56
2022-09-27T11:18:27.813Z,81.79
2022-09-27T11:21:19.123Z,83.15
2022-09-27T11:24:08.365Z,83.57
2022-09-27T11:27:05.994Z,84.26
2022-09-27T11:30:03.599Z,84.66
2022-09-27T11:32:55.528Z,84.90
2022-09-27T11:35:50.225Z,85.47
2022-09-27T11:38:52.116Z,86.07
2022-09-27T11:41:33.591Z,86.58
2022-09-27T11:44:19.990Z,86.41
2022-09-27T11:47:21.553Z,86.18
2022-09-27T11:50:25.982Z,86.31
2022-09-27T11:53:19.327Z,87.00
2022-09-27T11:55:53.397Z,87.15
2022-09-27T11:58:39.937Z,86.54
2022-09-27T12:01:39.281Z,85.65
2022-09-27T12:04:12.192Z,85.56
2022-09-27T12:06:47.169Z,84.33
2022-09-27T12:09:23.161Z,84.61
2022-09-27T12:11:55.038Z,85.44
2022-09-27T12:14:45.845Z,82.84
2022-09-27T12:17:18.702Z,82.58
2022-09-27T12:19:50.639Z,81.05
2022-09-27T12:22:40.278Z,81.32
2022-09-27T12:25:20.537Z,80.57
2022-09-27T12:27:53.999Z,80.46
2022-09-27T12:30:20.789Z,80.96
2022-09-27T12:33:15.543Z,79.47
2022-09-27T12:35:55.308Z,78.87
2022-09-27T12:38:22.053Z,79.49
2022-09-27T12:40:53.742Z,79.04
2022-09-27T12:43:20.571Z,81.19
2022-09-27T12:46:24.577Z,82.04
2022-09-27T12:49:05.808Z,81.46
2022-09-27T12:51:41.710Z,81.04
2022-09-27T12:54:35.029Z,80.97
2022-09-27T12:57:20.583Z,77.45
2022-09-27T13:00:25.401Z,77.04
2022-09-27T13:03:15.423Z,75.95
2022-09-27T13:06:24.584Z,75.43
2022-09-27T13:09:09.940Z,75.01
2022-09-27T13:12:02.056Z,75.39
2022-09-27T13:14:34.768Z,73.97
2022-09-27T13:17:01.799Z,73.06
2022-09-27T13:19:40.023Z,71.41
2022-09-27T13:22:31.444Z,71.24
2022-09-27T13:25:03.791Z,71.44
2022-09-27T13:27:30.832Z,71.60
2022-09-27T13:30:12.784Z,72.83
2022-09-27T13:32:41.113Z,72.93
2022-09-27T13:35:24.534Z,72.78
2022-09-27T13:38:01.303Z,73.10
2022-09-27T13:40:37.175Z,73.47
2022-09-27T13:43:22.104Z,73.89
2022-09-27T13:46:08.051Z,74.40
2022-09-27T13:48:37.925Z,72.33
2022-09-27T13:51:25.269Z,73.09
2022-09-27T13:54:10.285Z,72.35
2022-09-27T13:56:38.362Z,73.08
2022-09-27T13:59:10.606Z,73.32
2022-09-27T14:01:42.806Z,73.47
2022-09-27T14:04:28.594Z,73.54
2022-09-27T14:07:01.980Z,73.27
2022-09-27T14:09:34.963Z,74.67
2022-09-27T14:12:16.690Z,75.00
2022-09-27T14:15:00.818Z,74.52
2022-09-27T14:17:27.986Z,73.24
2022-09-27T14:19:54.843Z,72.27
2022-09-27T14:22:23.590Z,72.00
2022-09-27T14:25:16.847Z,71.66
2022-09-27T14:27:43.597Z,72.70
2022-09-27T14:30:22.609Z,70.82
2022-09-27T14:32:58.710Z,70.51
2022-09-27T14:35:45.821Z,70.40
2022-09-27T14:38:46.700Z,69.52
2022-09-27T14:41:08.607Z,69.08
2022-09-27T14:43:37.717Z,68.66
2022-09-27T14:46:07.360Z,68.28
2022-09-27T14:48:37.489Z,67.34
2022-09-27T14:51:14.371Z,67.12
2022-09-27T14:53:45.438Z,67.88
2022-09-27T14:56:27.674Z,66.61
2022-09-27T14:59:02.684Z,66.28
2022-09-27T15:01:30.615Z,66.27
2022-09-27T15:04:05.983Z,66.30
2022-09-27T15:06:35.702Z,65.68
2022-09-27T15:09:04.685Z,66.16
2022-09-27T15:11:33.473Z,67.40
2022-09-27T15:14:02.285Z,70.61
2022-09-27T15:16:31.642Z,72.77
2022-09-27T15:19:27.096Z,74.24
2022-09-27T15:21:54.558Z,76.62
2022-09-27T15:24:47.796Z,77.32
2022-09-27T15:27:18.342Z,77.44
2022-09-27T15:29:54.928Z,76.60
2022-09-27T15:32:27.527Z,77.59
2022-09-27T15:35:07.701Z,78.69
2022-09-27T15:37:39.392Z,78.91
2022-09-27T15:40:18.798Z,80.03
2022-09-27T15:42:57.663Z,77.85
2022-09-27T15:45:33.941Z,78.33
2022-09-27T15:48:27.603Z,78.07
2022-09-27T15:50:54.435Z,78.25
2022-09-27T15:53:33.535Z,78.38
2022-09-27T15:56:02.206Z,78.96
2022-09-27T15:58:29.834Z,79.53
2022-09-27T16:00:59.523Z,77.25
2022-09-27T16:03:27.289Z,75.69
2022-09-27T16:05:56.383Z,75.42
2022-09-27T16:08:24.325Z,75.27
2022-09-27T16:10:53.552Z,75.17
2022-09-27T16:13:20.414Z,74.88
2022-09-27T16:15:48.027Z,74.17
2022-09-27T16:18:15.003Z,74.04
2022-09-27T16:20:42.723Z,73.76
2022-09-27T16:23:09.777Z,73.87
2022-09-27T16:25:36.695Z,74.65
2022-09-27T16:28:05.564Z,74.71
2022-09-27T16:30:33.471Z,74.45
2022-09-27T16:33:01.529Z,75.11
2022-09-27T16:35:28.708Z,75.24
2022-09-27T16:37:55.543Z,75.26
2022-09-27T16:40:25.351Z,75.34
2022-09-27T16:42:52.661Z,75.10
2022-09-27T16:45:19.952Z,75.01
2022-09-27T16:47:47.748Z,75.39
2022-09-27T16:50:34.366Z,75.46
2022-09-27T16:53:01.835Z,75.14
2022-09-27T16:55:29.772Z,75.53
2022-09-27T16:58:00.310Z,75.78
2022-09-27T17:00:28.072Z,76.17
2022-09-27T17:02:55.142Z,75.97
2022-09-27T17:05:28.518Z,76.34
2022-09-27T17:07:55.537Z,76.52
2022-09-27T17:10:23.625Z,76.63
2022-09-27T17:12:50.941Z,77.02
2022-09-27T17:15:18.308Z,77.80
2022-09-27T17:17:49.880Z,77.51
2022-09-27T17:20:18.043Z,77.61
2022-09-27T17:22:45.200Z,78.05
2022-09-27T17:25:12.211Z,79.71
2022-09-27T17:27:39.193Z,79.27
2022-09-27T17:30:07.250Z,79.12
2022-09-27T17:32:35.126Z,79.03
2022-09-27T17:35:09.953Z,79.01
2022-09-27T17:37:37.156Z,78.91
2022-09-27T17:40:06.006Z,78.99
2022-09-27T17:42:34.550Z,79.93
2022-09-27T17:45:04.665Z,80.38
2022-09-27T17:47:50.084Z,79.85
2022-09-27T17:50:27.424Z,80.08
2022-09-27T17:52:55.313Z,79.25
2022-09-27T17:55:23.285Z,78.85
2022-09-27T17:57:50.827Z,79.65
2022-09-27T18:00:21.327Z,79.88
2022-09-27T18:02:49.249Z,79.13
2022-09-27T18:05:18.629Z,79.36
2022-09-27T18:07:45.547Z,79.65
2022-09-27T18:10:12.535Z,79.90
2022-09-27T18:12:59.374Z,80.39
2022-09-27T18:15:26.865Z,80.64
2022-09-27T18:17:57.945Z,80.72
2022-09-27T18:20:27.955Z,80.74
2022-09-27T18:22:54.962Z,80.50
2022-09-27T18:25:25.368Z,80.57
2022-09-27T18:27:53.215Z,80.62
2022-09-27T18:30:20.054Z,80.22
2022-09-27T18:32:46.906Z,81.04
2022-09-27T18:35:15.206Z,80.64
2022-09-27T18:37:47.061Z,81.53
2022-09-27T18:40:14.890Z,81.68
2022-09-27T18:42:41.964Z,80.92
2022-09-27T18:45:09.261Z,80.62
2022-09-27T18:47:36.312Z,80.46
2022-09-27T18:50:03.381Z,81.25
2022-09-27T18:52:33.581Z,81.07
2022-09-27T18:55:06.220Z,80.82
2022-09-27T18:57:34.239Z,81.14
2022-09-27T19:00:04.559Z,81.11
2022-09-27T19:09:41.933Z,81.01
2022-09-27T19:12:08.910Z,80.34
2022-09-27T19:14:35.749Z,80.69
2022-09-27T19:17:02.790Z,80.58
2022-09-27T19:19:29.694Z,80.35
2022-09-27T19:21:56.862Z,79.66
2022-09-27T19:24:23.845Z,79.74
2022-09-27T19:26:56.329Z,79.51
2022-09-27T19:29:23.209Z,79.06
2022-09-27T19:31:50.141Z,79.45
2022-09-27T19:34:17.098Z,79.46
2022-09-27T19:36:44.347Z,78.58
2022-09-27T19:39:22.825Z,78.47
2022-09-27T19:41:50.480Z,78.78
2022-09-27T19:44:17.868Z,78.05
2022-09-27T19:46:46.336Z,78.41
2022-09-27T19:49:13.647Z,78.90
2022-09-27T19:51:40.990Z,78.04
2022-09-27T19:54:11.014Z,77.67
2022-09-27T19:56:38.300Z,77.82
2022-09-27T19:59:14.670Z,77.90
2022-09-27T20:01:42.342Z,77.92
2022-09-27T20:04:13.292Z,78.60
2022-09-27T20:06:40.851Z,78.14
2022-09-27T20:09:08.223Z,78.14
2022-09-27T20:11:36.174Z,78.01
2022-09-27T20:14:03.456Z,78.39
2022-09-27T20:16:32.314Z,78.32
2022-09-27T20:19:01.346Z,78.26
2022-09-27T20:21:34.737Z,78.56
2022-09-27T20:24:03.143Z,78.73
2022-09-27T20:26:32.718Z,78.78
2022-09-27T20:29:02.600Z,78.45
2022-09-27T20:31:37.165Z,78.64
2022-09-27T20:34:07.242Z,78.66
2022-09-27T20:36:39.679Z,78.88
2022-09-27T20:39:10.987Z,79.11
2022-09-27T20:41:43.187Z,78.79
2022-09-27T20:44:12.497Z,78.91
2022-09-27T20:46:40.547Z,79.34
2022-09-27T20:49:09.899Z,79.43
2022-09-27T20:51:39.539Z,79.82
2022-09-27T20:54:10.460Z,79.66
2022-09-27T20:56:48.269Z,79.58
2022-09-27T20:59:19.048Z,79.27
2022-09-27T21:01:49.299Z,78.46
2022-09-27T21:04:17.875Z,78.89
2022-09-27T21:06:45.196Z,79.49
2022-09-27T21:09:18.830Z,79.28
2022-09-27T21:11:59.886Z,79.38
2022-09-27T21:14:27.532Z,79.55
2022-09-27T21:16:55.390Z,79.97
2022-09-27T21:19:23.896Z,79.41
2022-09-27T21:21:54.043Z,79.57
2022-09-27T21:24:21.312Z,79.42
2022-09-27T21:26:48.237Z,79.04
2022-09-27T21:29:15.211Z,79.16
2022-09-27T21:31:43.234Z,80.05
2022-09-27T21:34:10.230Z,79.03
2022-09-27T21:36:38.838Z,80.20
2022-09-27T21:39:08.844Z,80.13
2022-09-27T21:41:36.197Z,80.08
2022-09-27T21:44:04.762Z,80.30
2022-09-27T21:46:31.737Z,80.52
2022-09-27T21:49:00.130Z,80.61
2022-09-27T21:51:29.643Z,81.16
2022-09-27T21:54:01.608Z,80.55
2022-09-27T21:56:30.856Z,80.85
2022-09-27T21:58:58.004Z,80.16
2022-09-27T22:01:31.216Z,80.84
2022-09-27T22:03:58.982Z,81.08
2022-09-27T22:06:31.514Z,80.56
2022-09-27T22:09:00.296Z,80.50
2022-09-27T22:11:30.233Z,79.57
2022-09-27T22:13:57.606Z,80.36
2022-09-27T22:16:27.095Z,80.20
2022-09-27T22:18:55.645Z,79.99
2022-09-27T22:21:26.556Z,79.17
2022-09-27T22:23:58.266Z,79.95
2022-09-27T22:26:27.997Z,80.30
2022-09-27T22:28:55.559Z,79.34
2022-09-27T22:31:23.379Z,79.45
2022-09-27T22:34:16.313Z,79.79
2022-09-27T22:36:43.919Z,79.09
2022-09-27T22:39:10.782Z,78.92
2022-09-27T22:41:43.296Z,78.93
2022-09-27T22:44:13.391Z,78.67
2022-09-27T22:46:44.584Z,78.42
2022-09-27T22:49:16.255Z,78.70
2022-09-27T22:51:43.157Z,79.03
2022-09-27T22:54:09.936Z,79.05
2022-09-27T22:56:36.777Z,78.86
2022-09-27T22:59:03.648Z,79.32
2022-09-27T23:01:31.661Z,78.34
2022-09-27T23:03:58.908Z,78.11
2022-09-27T23:06:25.786Z,77.73
2022-09-27T23:08:54.035Z,77.35
2022-09-27T23:11:23.114Z,77.23
2022-09-27T23:13:51.187Z,77.23
2022-09-27T23:16:21.355Z,77.42
2022-09-27T23:18:48.137Z,77.41
2022-09-27T23:21:16.243Z,77.15
2022-09-27T23:23:45.890Z,76.83
2022-09-27T23:26:15.336Z,78.42
2022-09-27T23:28:42.923Z,78.22
2022-09-27T23:31:14.914Z,77.71
2022-09-27T23:33:43.975Z,77.21
2022-09-27T23:36:17.658Z,77.69
2022-09-27T23:38:46.681Z,77.65
2022-09-27T23:41:15.164Z,78.03
2022-09-27T23:43:42.232Z,77.54
2022-09-27T23:46:09.424Z,78.69
2022-09-27T23:48:37.296Z,78.62
2022-09-27T23:51:06.319Z,78.50
2022-09-27T23:53:33.377Z,78.35
2022-09-27T23:56:02.900Z,78.91
2022-09-27T23:58:43.478Z,78.51
